KRFD/RFD METAR and TAF weather

Enter ICAO airport designator
Station Type Date Time Source
KRFD METAR 2021/05/15 01:54 UTC NOAA

KRFD 150154Z 19003KT 10SM BKN170 OVC250 17/M02 A3021 RMK AO2 SLP231 T01671022


Station Type Date Time Source
KRFD Decoded METAR 2021/05/15 01:54 UTC NOAA

GREATER ROCKFORD AIRPORT, IL, United States (KRFD) 42-12N 89-06W 221M
May 14, 2021 - 09:54 PM EDT / 2021.05.15 0154 UTC
Wind: from the S (190 degrees) at 3 MPH (3 KT):0
Visibility: 10 mile(s):0
Sky conditions: overcast
Temperature: 62.1 F (16.7 C)
Dew Point: 28.0 F (-2.2 C)
Relative Humidity: 27%
Pressure (altimeter): 30.21 in. Hg (1023 hPa)
ob: KRFD 150154Z 19003KT 10SM BKN170 OVC250 17/M02 A3021 RMK AO2 SLP231 T01671022
cycle: 2

Station Type Date Time Source
KRFD TAF 2021/05/14 21:59 UTC NOAA

TAF
AMD KRFD 142059Z 1421/1518 19010G16KT P6SM FEW100 SCT250
FM150100 17007KT P6SM SCT100 BKN200
FM151400 18010G18KT P6SM OVC080 PROB30 1514/1518 6SM -SHRA BKN020

Example: see airport list